createdAt,value
2017-03-08T00:00:25.812Z,1006.69
2017-03-08T00:00:47.536Z,1006.77
2017-03-08T00:01:14.028Z,1006.61
2017-03-08T00:01:35.728Z,1006.70
2017-03-08T00:02:43.031Z,1006.69
2017-03-08T00:03:04.729Z,1006.71
2017-03-08T00:03:31.214Z,1006.69
2017-03-08T00:03:52.996Z,1006.72
2017-03-08T00:05:00.278Z,1006.66
2017-03-08T00:05:21.995Z,1006.60
2017-03-08T00:05:43.709Z,1006.72
2017-03-08T00:06:05.417Z,1006.70
2017-03-08T00:06:27.113Z,1006.74
2017-03-08T00:06:53.590Z,1006.69
2017-03-08T00:07:15.299Z,1006.69
2017-03-08T00:07:41.783Z,1006.67
2017-03-08T00:08:03.487Z,1006.63
2017-03-08T00:08:25.195Z,1006.68
2017-03-08T00:08:46.905Z,1006.61
2017-03-08T00:09:08.600Z,1006.67
2017-03-08T00:10:01.573Z,1006.64
2017-03-08T00:10:28.044Z,1006.58
2017-03-08T00:10:49.766Z,1006.59
2017-03-08T00:11:11.484Z,1006.56
2017-03-08T00:12:14.522Z,1006.53
2017-03-08T00:12:36.232Z,1006.52
2017-03-08T00:13:02.716Z,1006.55
2017-03-08T00:13:24.435Z,1006.60
2017-03-08T00:13:50.915Z,1006.58
2017-03-08T00:14:12.624Z,1006.62
2017-03-08T00:14:39.106Z,1006.63
2017-03-08T00:15:00.831Z,1006.56
2017-03-08T00:15:22.525Z,1006.59
2017-03-08T00:15:49.010Z,1006.54
2017-03-08T00:16:10.706Z,1006.52
2017-03-08T00:16:32.405Z,1006.53
2017-03-08T00:16:58.877Z,1006.53
2017-03-08T00:17:20.569Z,1006.64
2017-03-08T00:17:42.265Z,1006.48
2017-03-08T00:18:09.744Z,1006.51
2017-03-08T00:18:31.443Z,1006.43
2017-03-08T00:18:53.137Z,1006.40
2017-03-08T00:19:14.849Z,1006.47
2017-03-08T00:19:36.569Z,1006.31
2017-03-08T00:20:03.078Z,1006.36
2017-03-08T00:20:24.780Z,1006.32
2017-03-08T00:21:32.061Z,1006.37
2017-03-08T00:21:53.751Z,1006.41
2017-03-08T00:22:15.459Z,1006.34
2017-03-08T00:22:37.158Z,1006.44
2017-03-08T00:22:58.863Z,1006.44
2017-03-08T00:23:20.583Z,1006.37
2017-03-08T00:23:47.168Z,1006.33
2017-03-08T00:24:08.861Z,1006.37
2017-03-08T00:24:35.348Z,1006.31
2017-03-08T00:24:57.042Z,1006.25
2017-03-08T00:25:23.515Z,1006.31
2017-03-08T00:25:45.219Z,1006.30
2017-03-08T00:26:07.016Z,1006.34
2017-03-08T00:27:14.287Z,1006.39
2017-03-08T00:27:35.985Z,1006.32
2017-03-08T00:28:07.324Z,1006.30
2017-03-08T00:28:29.014Z,1006.32
2017-03-08T00:28:50.726Z,1006.30
2017-03-08T00:29:43.688Z,1006.37
2017-03-08T00:30:50.960Z,1006.32
2017-03-08T00:31:12.674Z,1006.35
2017-03-08T00:31:39.143Z,1006.30
2017-03-08T00:32:00.845Z,1006.38
2017-03-08T00:32:22.557Z,1006.41
2017-03-08T00:33:15.503Z,1006.38
2017-03-08T00:33:42.000Z,1006.39
2017-03-08T00:34:03.710Z,1006.36
2017-03-08T00:34:25.414Z,1006.41
2017-03-08T00:34:47.131Z,1006.34
2017-03-08T00:35:08.833Z,1006.45
2017-03-08T00:35:35.296Z,1006.42
2017-03-08T00:35:56.988Z,1006.39
2017-03-08T00:36:23.468Z,1006.45
2017-03-08T00:36:45.170Z,1006.39
2017-03-08T00:37:06.881Z,1006.46
2017-03-08T00:37:59.824Z,1006.37
2017-03-08T00:38:21.522Z,1006.46
2017-03-08T00:38:43.319Z,1006.41
2017-03-08T00:39:05.020Z,1006.36
2017-03-08T00:39:31.493Z,1006.45
2017-03-08T00:39:53.192Z,1006.44
2017-03-08T00:40:46.167Z,1006.43
2017-03-08T00:41:12.641Z,1006.38
2017-03-08T00:41:34.448Z,1006.40
2017-03-08T00:41:56.163Z,1006.36
2017-03-08T00:42:22.649Z,1006.39
2017-03-08T00:42:44.341Z,1006.42
2017-03-08T00:43:10.814Z,1006.36
2017-03-08T00:43:32.528Z,1006.34
2017-03-08T00:43:59.005Z,1006.29
2017-03-08T00:44:20.708Z,1006.32
2017-03-08T00:44:47.188Z,1006.31
2017-03-08T00:45:08.905Z,1006.32
2017-03-08T00:45:30.639Z,1006.29
2017-03-08T00:45:57.114Z,1006.24
2017-03-08T00:46:18.813Z,1006.26
2017-03-08T00:46:45.280Z,1006.21
2017-03-08T00:47:06.975Z,1006.26
2017-03-08T00:47:33.462Z,1006.24
2017-03-08T00:47:55.165Z,1006.22
2017-03-08T00:48:21.637Z,1006.18
2017-03-08T00:48:43.335Z,1006.20
2017-03-08T00:49:09.803Z,1006.19
2017-03-08T00:49:31.507Z,1006.14
2017-03-08T00:49:53.318Z,1006.17
2017-03-08T00:50:19.802Z,1006.12
2017-03-08T00:50:41.532Z,1006.13
2017-03-08T00:51:03.225Z,1006.13
2017-03-08T00:51:56.185Z,1006.10
2017-03-08T00:52:17.888Z,1006.11
2017-03-08T00:52:39.587Z,1006.12
2017-03-08T00:53:01.312Z,1006.03
2017-03-08T00:53:27.789Z,1006.07
2017-03-08T00:54:20.752Z,1006.08
2017-03-08T00:54:42.457Z,1006.01
2017-03-08T00:55:08.924Z,1006.03
2017-03-08T00:55:30.622Z,1006.00
2017-03-08T00:55:57.098Z,1006.00
2017-03-08T00:56:18.803Z,1006.00
2017-03-08T00:56:40.499Z,1005.98
2017-03-08T00:57:07.065Z,1006.00
2017-03-08T00:57:28.848Z,1006.00
2017-03-08T00:57:55.355Z,1006.07
2017-03-08T00:58:17.060Z,1006.02
2017-03-08T00:59:10.024Z,1006.00
2017-03-08T00:59:36.502Z,1005.96
2017-03-08T00:59:58.211Z,1006.09
2017-03-08T01:00:19.996Z,1006.02
2017-03-08T01:00:46.481Z,1006.03
2017-03-08T01:01:08.181Z,1005.96
2017-03-08T01:02:01.131Z,1005.99
2017-03-08T01:02:27.605Z,1005.94
2017-03-08T01:02:49.300Z,1005.93
2017-03-08T01:03:11.002Z,1005.88
2017-03-08T01:03:37.475Z,1005.89
2017-03-08T01:03:59.185Z,1005.92
2017-03-08T01:04:20.885Z,1005.84
2017-03-08T01:04:47.383Z,1005.86
2017-03-08T01:05:09.081Z,1005.89
2017-03-08T01:06:02.045Z,1005.89
2017-03-08T01:06:28.530Z,1005.87
2017-03-08T01:06:50.313Z,1005.90
2017-03-08T01:07:12.009Z,1005.85
2017-03-08T01:07:38.481Z,1005.88
2017-03-08T01:08:00.176Z,1005.92
2017-03-08T01:08:26.656Z,1005.90
2017-03-08T01:08:48.355Z,1005.91
2017-03-08T01:09:14.838Z,1005.97
2017-03-08T01:09:36.533Z,1005.90
2017-03-08T01:09:58.231Z,1005.92
2017-03-08T01:10:24.707Z,1005.93
2017-03-08T01:10:46.513Z,1005.91
2017-03-08T01:11:13.087Z,1005.90
2017-03-08T01:11:34.792Z,1005.93
2017-03-08T01:11:56.496Z,1005.90
2017-03-08T01:12:59.531Z,1005.89
2017-03-08T01:13:21.249Z,1005.97
2017-03-08T01:14:14.198Z,1005.90
2017-03-08T01:15:07.170Z,1005.96
2017-03-08T01:16:00.145Z,1005.94
2017-03-08T01:16:26.633Z,1005.97
2017-03-08T01:16:48.326Z,1005.99
2017-03-08T01:17:14.800Z,1005.95
2017-03-08T01:17:36.508Z,1005.95
2017-03-08T01:18:02.992Z,1005.89
2017-03-08T01:18:24.780Z,1005.92
2017-03-08T01:18:51.246Z,1005.93
2017-03-08T01:19:12.945Z,1005.91
2017-03-08T01:19:39.431Z,1005.85
2017-03-08T01:20:32.379Z,1005.89
2017-03-08T01:21:25.341Z,1005.89
2017-03-08T01:22:27.844Z,1005.81
2017-03-08T01:22:49.543Z,1005.85
2017-03-08T01:23:11.266Z,1005.85
2017-03-08T01:24:04.221Z,1005.83
2017-03-08T01:24:25.978Z,1005.82
2017-03-08T01:24:52.464Z,1005.81
2017-03-08T01:25:14.161Z,1005.83
2017-03-08T01:25:35.860Z,1005.85
2017-03-08T01:25:57.565Z,1005.84
2017-03-08T01:26:19.261Z,1005.92
2017-03-08T01:26:45.741Z,1005.85
2017-03-08T01:27:07.463Z,1005.87
2017-03-08T01:27:29.173Z,1005.91
2017-03-08T01:28:22.131Z,1005.93
2017-03-08T01:29:15.086Z,1005.88
2017-03-08T01:29:41.577Z,1005.99
2017-03-08T01:30:03.271Z,1006.02
2017-03-08T01:30:24.959Z,1005.94
2017-03-08T01:30:51.532Z,1006.02
2017-03-08T01:31:13.227Z,1006.10
2017-03-08T01:31:34.938Z,1006.06
2017-03-08T01:32:27.888Z,1006.14
2017-03-08T01:32:49.585Z,1006.15
2017-03-08T01:33:42.557Z,1006.06
2017-03-08T01:34:04.258Z,1006.13
2017-03-08T01:34:30.733Z,1006.15
2017-03-08T01:34:52.427Z,1006.10
2017-03-08T01:35:14.122Z,1006.07
2017-03-08T01:36:07.173Z,1006.00
2017-03-08T01:36:33.641Z,1006.12
2017-03-08T01:36:55.344Z,1006.07
2017-03-08T01:37:17.075Z,1006.09
2017-03-08T01:37:43.556Z,1006.08
2017-03-08T01:38:05.264Z,1006.09
2017-03-08T01:38:31.738Z,1006.07
2017-03-08T01:38:53.454Z,1006.09
2017-03-08T01:39:15.164Z,1006.08
2017-03-08T01:40:13.427Z,1006.14
2017-03-08T01:40:35.142Z,1006.01
2017-03-08T01:40:56.851Z,1006.09
2017-03-08T01:41:23.332Z,1006.06
2017-03-08T01:41:45.044Z,1006.01
2017-03-08T01:42:11.517Z,1006.07
2017-03-08T01:42:33.229Z,1006.05
2017-03-08T01:42:55.049Z,1006.02
2017-03-08T01:43:21.525Z,1005.97
2017-03-08T01:44:23.908Z,1006.09
2017-03-08T01:44:45.682Z,1006.06
2017-03-08T01:45:36.435Z,1006.13
2017-03-08T01:45:58.246Z,1006.11
2017-03-08T01:46:23.665Z,1006.10
2017-03-08T01:47:31.222Z,1006.09
2017-03-08T01:47:57.814Z,1006.19
2017-03-08T01:48:20.684Z,1006.24
2017-03-08T01:48:48.224Z,1006.26
2017-03-08T01:49:42.077Z,1006.14
2017-03-08T01:51:16.125Z,1006.20
2017-03-08T01:51:42.646Z,1006.12
2017-03-08T01:52:09.259Z,1006.17
2017-03-08T01:53:03.341Z,1006.19
2017-03-08T01:54:44.920Z,1006.37
2017-03-08T01:55:06.750Z,1006.27
2017-03-08T01:55:28.467Z,1006.22
2017-03-08T01:56:56.881Z,1006.25
2017-03-08T01:57:19.288Z,1006.24
2017-03-08T01:58:13.310Z,1006.30
2017-03-08T01:58:35.852Z,1006.28
2017-03-08T01:58:57.843Z,1006.25
2017-03-08T01:59:19.825Z,1006.22
2017-03-08T02:00:26.937Z,1006.17
2017-03-08T02:00:51.635Z,1006.24
2017-03-08T02:01:13.568Z,1006.31
2017-03-08T02:01:35.601Z,1006.27
2017-03-08T02:02:00.634Z,1006.31
2017-03-08T02:02:25.365Z,1006.30
2017-03-08T02:02:49.739Z,1006.20
2017-03-08T02:03:11.627Z,1006.28
2017-03-08T02:03:36.525Z,1006.23
2017-03-08T02:03:58.486Z,1006.28
2017-03-08T02:04:22.448Z,1006.34
2017-03-08T02:04:54.902Z,1006.35
2017-03-08T02:05:16.707Z,1006.26
2017-03-08T02:05:39.393Z,1006.23
2017-03-08T02:06:47.024Z,1006.32
2017-03-08T02:07:14.091Z,1006.30
2017-03-08T02:07:41.142Z,1006.26
2017-03-08T02:09:41.414Z,1006.31
2017-03-08T02:10:18.419Z,1006.38
2017-03-08T02:12:00.724Z,1006.30
2017-03-08T02:12:23.249Z,1006.29
2017-03-08T02:12:49.888Z,1006.26
2017-03-08T02:13:45.791Z,1006.29
2017-03-08T02:14:51.642Z,1006.33
2017-03-08T02:15:18.129Z,1006.30
2017-03-08T02:15:47.535Z,1006.33
2017-03-08T02:16:27.278Z,1006.43
2017-03-08T02:16:49.691Z,1006.42
2017-03-08T02:18:19.147Z,1006.41
2017-03-08T02:18:40.877Z,1006.42
2017-03-08T02:19:02.834Z,1006.45
2017-03-08T02:19:24.687Z,1006.47
2017-03-08T02:20:27.281Z,1006.48
2017-03-08T02:20:48.998Z,1006.52
2017-03-08T02:21:10.778Z,1006.40
2017-03-08T02:21:32.725Z,1006.54
2017-03-08T02:21:54.839Z,1006.51
2017-03-08T02:22:22.487Z,1006.48
2017-03-08T02:22:44.589Z,1006.56
2017-03-08T02:23:07.416Z,1006.54
2017-03-08T02:23:41.777Z,1006.55
2017-03-08T02:24:06.949Z,1006.63
2017-03-08T02:24:56.371Z,1006.62
2017-03-08T02:25:18.664Z,1006.57
2017-03-08T02:25:40.434Z,1006.53
2017-03-08T02:26:02.275Z,1006.58
2017-03-08T02:26:24.135Z,1006.62
2017-03-08T02:26:46.062Z,1006.58
2017-03-08T02:27:10.670Z,1006.65
2017-03-08T02:27:32.488Z,1006.64
2017-03-08T02:27:54.430Z,1006.59
2017-03-08T02:28:17.728Z,1006.63
2017-03-08T02:28:40.101Z,1006.59
2017-03-08T02:29:01.933Z,1006.64
2017-03-08T02:29:24.688Z,1006.67
2017-03-08T02:29:56.036Z,1006.67
2017-03-08T02:30:20.535Z,1006.69
2017-03-08T02:30:43.563Z,1006.72
2017-03-08T02:31:16.655Z,1006.76
2017-03-08T02:31:43.190Z,1006.72
2017-03-08T02:32:05.050Z,1006.64
2017-03-08T02:33:26.301Z,1006.77
2017-03-08T02:33:53.227Z,1006.77
2017-03-08T02:34:15.112Z,1006.72
2017-03-08T02:35:11.385Z,1006.63
2017-03-08T02:35:33.545Z,1006.66
2017-03-08T02:35:56.940Z,1006.61
2017-03-08T02:36:23.837Z,1006.60
2017-03-08T02:36:45.595Z,1006.64
2017-03-08T02:37:07.406Z,1006.63
2017-03-08T02:37:29.274Z,1006.58
2017-03-08T02:37:51.169Z,1006.69
2017-03-08T02:38:13.031Z,1006.64
2017-03-08T02:38:39.552Z,1006.66
2017-03-08T02:39:04.250Z,1006.67
2017-03-08T02:39:38.231Z,1006.75
2017-03-08T02:40:48.415Z,1006.69
2017-03-08T02:41:14.285Z,1006.71
2017-03-08T02:41:36.038Z,1006.60
2017-03-08T02:41:58.109Z,1006.67
2017-03-08T02:42:51.311Z,1006.57
2017-03-08T02:43:13.056Z,1006.60
2017-03-08T02:43:34.781Z,1006.55
2017-03-08T02:43:56.705Z,1006.59
2017-03-08T02:44:18.688Z,1006.57
2017-03-08T02:44:43.424Z,1006.54
2017-03-08T02:45:10.019Z,1006.57
2017-03-08T02:45:36.776Z,1006.54
2017-03-08T02:46:03.005Z,1006.60
2017-03-08T02:46:24.800Z,1006.61
2017-03-08T02:46:46.666Z,1006.60
2017-03-08T02:47:08.459Z,1006.57
2017-03-08T02:47:30.488Z,1006.55
2017-03-08T02:47:58.376Z,1006.58
2017-03-08T02:48:20.145Z,1006.60
2017-03-08T02:48:42.653Z,1006.57
2017-03-08T02:49:10.394Z,1006.54
2017-03-08T02:49:35.416Z,1006.56
2017-03-08T02:49:57.184Z,1006.59
2017-03-08T02:50:48.293Z,1006.51
2017-03-08T02:51:13.078Z,1006.44
2017-03-08T02:51:34.824Z,1006.55
2017-03-08T02:52:01.415Z,1006.58
2017-03-08T02:53:13.111Z,1006.64
2017-03-08T02:53:45.514Z,1006.54
2017-03-08T02:54:07.899Z,1006.56
2017-03-08T02:54:29.872Z,1006.66
2017-03-08T02:54:56.488Z,1006.70
2017-03-08T02:55:18.702Z,1006.55
2017-03-08T02:55:40.627Z,1006.56
2017-03-08T02:56:07.125Z,1006.63
2017-03-08T02:56:34.634Z,1006.54
2017-03-08T02:56:56.323Z,1006.62
2017-03-08T02:57:22.819Z,1006.59
2017-03-08T02:57:44.532Z,1006.63
2017-03-08T02:58:48.557Z,1006.66
2017-03-08T02:59:10.415Z,1006.63
2017-03-08T03:00:12.937Z,1006.57
2017-03-08T03:00:34.644Z,1006.60
2017-03-08T03:01:01.127Z,1006.60
2017-03-08T03:01:22.833Z,1006.59
2017-03-08T03:02:30.116Z,1006.56
2017-03-08T03:02:51.930Z,1006.54
2017-03-08T03:03:59.277Z,1006.53
2017-03-08T03:04:20.974Z,1006.54
2017-03-08T03:05:13.956Z,1006.47
2017-03-08T03:06:16.506Z,1006.51
2017-03-08T03:06:38.238Z,1006.52
2017-03-08T03:06:59.943Z,1006.58
2017-03-08T03:07:24.508Z,1006.50
2017-03-08T03:07:46.224Z,1006.51
2017-03-08T03:08:07.974Z,1006.48
2017-03-08T03:08:29.731Z,1006.56
2017-03-08T03:08:51.469Z,1006.52
2017-03-08T03:09:15.754Z,1006.49
2017-03-08T03:09:37.477Z,1006.55
2017-03-08T03:11:07.055Z,1006.54
2017-03-08T03:11:28.815Z,1006.52
2017-03-08T03:12:31.356Z,1006.53
2017-03-08T03:12:53.090Z,1006.57
2017-03-08T03:13:14.807Z,1006.49
2017-03-08T03:13:36.586Z,1006.56
2017-03-08T03:13:58.343Z,1006.55
2017-03-08T03:14:20.081Z,1006.53
2017-03-08T03:14:46.561Z,1006.62
2017-03-08T03:15:08.269Z,1006.50
2017-03-08T03:15:30.000Z,1006.48
2017-03-08T03:15:51.750Z,1006.42
2017-03-08T03:16:13.470Z,1006.47
2017-03-08T03:16:39.955Z,1006.47
2017-03-08T03:17:01.684Z,1006.47
2017-03-08T03:17:23.517Z,1006.48
2017-03-08T03:18:16.542Z,1006.47
2017-03-08T03:18:38.306Z,1006.52
2017-03-08T03:19:00.050Z,1006.51
2017-03-08T03:19:21.804Z,1006.49
2017-03-08T03:19:43.551Z,1006.50
2017-03-08T03:20:05.278Z,1006.52
2017-03-08T03:20:27.023Z,1006.50
2017-03-08T03:20:48.744Z,1006.45
2017-03-08T03:21:10.535Z,1006.46
2017-03-08T03:21:32.260Z,1006.50
2017-03-08T03:21:58.810Z,1006.44
2017-03-08T03:22:20.598Z,1006.48
2017-03-08T03:22:47.102Z,1006.59
2017-03-08T03:23:08.894Z,1006.42
2017-03-08T03:24:02.068Z,1006.51
2017-03-08T03:24:23.845Z,1006.54
2017-03-08T03:24:50.487Z,1006.48
2017-03-08T03:25:12.139Z,1006.49
2017-03-08T03:26:45.962Z,1006.40
2017-03-08T03:27:07.693Z,1006.40
2017-03-08T03:28:00.742Z,1006.45
2017-03-08T03:28:53.838Z,1006.38
2017-03-08T03:29:46.801Z,1006.49
2017-03-08T03:30:39.981Z,1006.42
2017-03-08T03:31:33.073Z,1006.48
2017-03-08T03:31:59.588Z,1006.40
2017-03-08T03:32:21.298Z,1006.50
2017-03-08T03:33:23.820Z,1006.42
2017-03-08T03:33:45.514Z,1006.54
2017-03-08T03:34:44.181Z,1006.57
2017-03-08T03:35:05.901Z,1006.56
2017-03-08T03:36:09.188Z,1006.62
2017-03-08T03:36:30.903Z,1006.54
2017-03-08T03:37:34.201Z,1006.57
2017-03-08T03:37:55.908Z,1006.52
2017-03-08T03:38:49.002Z,1006.58
2017-03-08T03:39:10.737Z,1006.53
2017-03-08T03:40:03.745Z,1006.57
2017-03-08T03:40:25.463Z,1006.52
2017-03-08T03:40:52.075Z,1006.49
2017-03-08T03:41:13.748Z,1006.55
2017-03-08T03:42:06.727Z,1006.63
2017-03-08T03:42:28.473Z,1006.64
2017-03-08T03:43:21.450Z,1006.59
2017-03-08T03:44:14.632Z,1006.63
2017-03-08T03:45:07.703Z,1006.59
2017-03-08T03:46:00.737Z,1006.56
2017-03-08T03:46:53.792Z,1006.63
2017-03-08T03:47:46.781Z,1006.55
2017-03-08T03:48:39.878Z,1006.43
2017-03-08T03:49:01.582Z,1006.51
2017-03-08T03:49:23.319Z,1006.43
2017-03-08T03:49:45.104Z,1006.49
2017-03-08T03:50:11.668Z,1006.47
2017-03-08T03:50:33.364Z,1006.40
2017-03-08T03:50:59.970Z,1006.47
2017-03-08T03:51:21.613Z,1006.39
2017-03-08T03:51:43.322Z,1006.47
2017-03-08T03:52:09.940Z,1006.44
2017-03-08T03:52:31.841Z,1006.47
2017-03-08T03:52:58.407Z,1006.41
2017-03-08T03:53:20.138Z,1006.44
2017-03-08T03:53:46.781Z,1006.58
2017-03-08T03:54:08.509Z,1006.53
2017-03-08T03:54:35.010Z,1006.56
2017-03-08T03:54:56.730Z,1006.51
2017-03-08T03:55:23.297Z,1006.51
2017-03-08T03:55:45.055Z,1006.55
2017-03-08T03:56:06.765Z,1006.60
2017-03-08T03:57:09.807Z,1006.69
2017-03-08T03:57:31.533Z,1006.62
2017-03-08T03:58:38.815Z,1006.50
2017-03-08T03:59:00.527Z,1006.54
2017-03-08T03:59:53.532Z,1006.63
2017-03-08T04:00:15.268Z,1006.60
2017-03-08T04:00:37.015Z,1006.58
2017-03-08T04:00:58.749Z,1006.48
2017-03-08T04:01:20.532Z,1006.54
2017-03-08T04:01:42.274Z,1006.57
2017-03-08T04:02:04.010Z,1006.52
2017-03-08T04:02:25.854Z,1006.53
2017-03-08T04:02:47.583Z,1006.56
2017-03-08T04:03:09.311Z,1006.64
2017-03-08T04:03:31.067Z,1006.67
2017-03-08T04:03:52.868Z,1006.64
2017-03-08T04:04:14.589Z,1006.67
2017-03-08T04:05:07.558Z,1006.66
2017-03-08T04:06:00.518Z,1006.81
2017-03-08T04:06:27.015Z,1006.74
2017-03-08T04:06:48.724Z,1006.76
2017-03-08T04:08:12.799Z,1006.72
2017-03-08T04:08:35.230Z,1006.70
2017-03-08T04:09:01.878Z,1006.71
2017-03-08T04:09:34.158Z,1006.71
2017-03-08T04:10:02.309Z,1006.66
2017-03-08T04:10:30.561Z,1006.73
2017-03-08T04:10:52.338Z,1006.81
2017-03-08T04:12:29.997Z,1006.84
2017-03-08T04:12:57.753Z,1006.81
2017-03-08T04:13:25.126Z,1006.86
2017-03-08T04:13:52.197Z,1006.84
2017-03-08T04:14:40.695Z,1006.79
2017-03-08T04:15:02.453Z,1006.83
2017-03-08T04:15:24.302Z,1006.84
2017-03-08T04:16:53.182Z,1006.72
2017-03-08T04:17:15.384Z,1006.75
2017-03-08T04:17:43.089Z,1006.73
2017-03-08T04:18:08.727Z,1006.63
2017-03-08T04:19:17.575Z,1006.76
2017-03-08T04:20:20.365Z,1006.70
2017-03-08T04:21:30.199Z,1006.70
2017-03-08T04:21:51.978Z,1006.66
2017-03-08T04:22:13.770Z,1006.69
2017-03-08T04:22:35.546Z,1006.68
2017-03-08T04:22:57.374Z,1006.69
2017-03-08T04:23:19.227Z,1006.67
2017-03-08T04:23:41.134Z,1006.68
2017-03-08T04:24:03.793Z,1006.69
2017-03-08T04:24:58.303Z,1006.71
2017-03-08T04:25:26.148Z,1006.60
2017-03-08T04:26:32.442Z,1006.71
2017-03-08T04:26:57.320Z,1006.69
2017-03-08T04:27:19.092Z,1006.66
2017-03-08T04:27:43.731Z,1006.70
2017-03-08T04:28:13.287Z,1006.74
2017-03-08T04:28:39.915Z,1006.75
2017-03-08T04:29:06.719Z,1006.73
2017-03-08T04:29:37.336Z,1006.77
2017-03-08T04:30:27.162Z,1006.79
2017-03-08T04:30:56.802Z,1006.73
2017-03-08T04:31:22.514Z,1006.76
2017-03-08T04:31:47.163Z,1006.78
2017-03-08T04:32:13.319Z,1006.76
2017-03-08T04:32:38.930Z,1006.79
2017-03-08T04:33:05.754Z,1006.80
2017-03-08T04:33:27.652Z,1006.75
2017-03-08T04:33:54.336Z,1006.71
2017-03-08T04:34:16.155Z,1006.76
2017-03-08T04:35:07.556Z,1006.77
2017-03-08T04:35:29.780Z,1006.69
2017-03-08T04:36:40.766Z,1006.80
2017-03-08T04:37:05.538Z,1006.74
2017-03-08T04:37:34.827Z,1006.79
2017-03-08T04:38:01.355Z,1006.79
2017-03-08T04:38:24.532Z,1006.74
2017-03-08T04:38:50.667Z,1006.68
2017-03-08T04:39:17.850Z,1006.74
2017-03-08T04:39:40.020Z,1006.79
2017-03-08T04:40:01.872Z,1006.80
2017-03-08T04:40:31.457Z,1006.67
2017-03-08T04:40:56.813Z,1006.74
2017-03-08T04:41:19.724Z,1006.69
2017-03-08T04:42:10.813Z,1006.75
2017-03-08T04:42:32.834Z,1006.75
2017-03-08T04:42:54.959Z,1006.67
2017-03-08T04:43:16.755Z,1006.63
2017-03-08T04:43:38.727Z,1006.64
2017-03-08T04:44:27.494Z,1006.70
2017-03-08T04:44:54.085Z,1006.71
2017-03-08T04:45:20.662Z,1006.73
2017-03-08T04:45:42.562Z,1006.65
2017-03-08T04:46:09.856Z,1006.64
2017-03-08T04:46:32.097Z,1006.75
2017-03-08T04:46:54.366Z,1006.68
2017-03-08T04:47:21.300Z,1006.63
2017-03-08T04:47:44.390Z,1006.72
2017-03-08T04:48:11.714Z,1006.65
2017-03-08T04:48:33.778Z,1006.70
2017-03-08T04:48:55.660Z,1006.69
2017-03-08T04:49:17.552Z,1006.71
2017-03-08T04:49:39.361Z,1006.80
2017-03-08T04:50:01.463Z,1006.72
2017-03-08T04:50:23.251Z,1006.77
2017-03-08T04:50:45.159Z,1006.81
2017-03-08T04:51:07.010Z,1006.75
2017-03-08T04:51:28.888Z,1006.89
2017-03-08T04:51:53.784Z,1006.82
2017-03-08T04:52:18.443Z,1006.83
2017-03-08T04:52:43.452Z,1006.87
2017-03-08T04:53:05.266Z,1006.84
2017-03-08T04:53:27.337Z,1006.93
2017-03-08T04:53:49.202Z,1006.87
2017-03-08T04:54:11.003Z,1006.81
2017-03-08T04:54:34.219Z,1006.80
2017-03-08T04:54:56.654Z,1006.79
2017-03-08T04:55:18.404Z,1006.82
2017-03-08T04:55:40.273Z,1006.90
2017-03-08T04:56:02.190Z,1006.92
2017-03-08T04:56:27.174Z,1006.87
2017-03-08T04:56:49.194Z,1006.84
2017-03-08T04:57:13.835Z,1006.84
2017-03-08T04:57:36.077Z,1006.84
2017-03-08T04:58:01.380Z,1006.80
2017-03-08T04:58:23.655Z,1006.78
2017-03-08T04:58:46.171Z,1006.78
2017-03-08T04:59:08.021Z,1006.72
2017-03-08T04:59:33.025Z,1006.75
2017-03-08T04:59:55.365Z,1006.74
2017-03-08T05:00:21.973Z,1006.85
2017-03-08T05:00:43.905Z,1006.86
2017-03-08T05:01:05.905Z,1006.73
2017-03-08T05:01:30.743Z,1006.82
2017-03-08T05:01:53.045Z,1006.74
2017-03-08T05:02:24.308Z,1006.81
2017-03-08T05:02:51.022Z,1006.72
2017-03-08T05:03:58.766Z,1006.80
2017-03-08T05:04:21.043Z,1006.78
2017-03-08T05:04:43.782Z,1006.77
2017-03-08T05:05:09.868Z,1006.80
2017-03-08T05:05:41.121Z,1006.77
2017-03-08T05:06:03.209Z,1006.82
2017-03-08T05:06:30.104Z,1006.82
2017-03-08T05:06:51.985Z,1006.86
2017-03-08T05:07:14.708Z,1006.86
2017-03-08T05:07:37.294Z,1006.86
2017-03-08T05:08:06.886Z,1006.77
2017-03-08T05:09:09.934Z,1006.81
2017-03-08T05:09:34.236Z,1006.77
2017-03-08T05:09:56.468Z,1006.76
2017-03-08T05:10:23.085Z,1006.87
2017-03-08T05:11:12.241Z,1006.75
2017-03-08T05:11:38.832Z,1006.78
2017-03-08T05:12:05.736Z,1006.86
2017-03-08T05:12:30.508Z,1006.84
2017-03-08T05:12:52.290Z,1006.86
2017-03-08T05:13:18.853Z,1006.71
2017-03-08T05:14:07.288Z,1006.77
2017-03-08T05:14:29.118Z,1006.78
2017-03-08T05:14:50.900Z,1006.75
2017-03-08T05:16:36.533Z,1006.81
2017-03-08T05:17:44.194Z,1006.82
2017-03-08T05:18:05.974Z,1006.82
2017-03-08T05:18:27.740Z,1006.82
2017-03-08T05:18:52.914Z,1006.77
2017-03-08T05:19:14.721Z,1006.77
2017-03-08T05:19:36.529Z,1006.77
2017-03-08T05:19:58.299Z,1006.80
2017-03-08T05:20:19.993Z,1006.78
2017-03-08T05:20:44.508Z,1006.78
2017-03-08T05:21:06.201Z,1006.79
2017-03-08T05:21:27.923Z,1006.71
2017-03-08T05:21:49.627Z,1006.75
2017-03-08T05:22:11.570Z,1006.69
2017-03-08T05:22:33.274Z,1006.65
2017-03-08T05:23:36.344Z,1006.73
2017-03-08T05:23:58.034Z,1006.70
2017-03-08T05:25:01.124Z,1006.71
2017-03-08T05:25:22.853Z,1006.63
2017-03-08T05:26:15.856Z,1006.65
2017-03-08T05:26:42.340Z,1006.56
2017-03-08T05:27:04.037Z,1006.60
2017-03-08T05:27:25.777Z,1006.55
2017-03-08T05:27:52.260Z,1006.54
2017-03-08T05:28:14.007Z,1006.55
2017-03-08T05:28:35.755Z,1006.61
2017-03-08T05:29:02.271Z,1006.51
2017-03-08T05:29:23.973Z,1006.55
2017-03-08T05:30:27.010Z,1006.52
2017-03-08T05:30:48.714Z,1006.52
2017-03-08T05:31:10.426Z,1006.51
2017-03-08T05:31:32.141Z,1006.46
2017-03-08T05:31:53.887Z,1006.49
2017-03-08T05:33:01.164Z,1006.46
2017-03-08T05:33:22.874Z,1006.51
2017-03-08T05:33:44.583Z,1006.57
2017-03-08T05:34:37.526Z,1006.48
2017-03-08T05:35:04.017Z,1006.49
2017-03-08T05:35:25.711Z,1006.57
2017-03-08T05:35:47.452Z,1006.51
2017-03-08T05:36:40.435Z,1006.45
2017-03-08T05:37:06.928Z,1006.37
2017-03-08T05:37:28.657Z,1006.46
2017-03-08T05:38:35.969Z,1006.50
2017-03-08T05:38:57.732Z,1006.51
2017-03-08T05:40:01.037Z,1006.41
2017-03-08T05:40:22.753Z,1006.52
2017-03-08T05:40:49.255Z,1006.50
2017-03-08T05:41:11.110Z,1006.48
2017-03-08T05:42:18.562Z,1006.60
2017-03-08T05:42:40.404Z,1006.55
2017-03-08T05:43:43.548Z,1006.59
2017-03-08T05:44:05.240Z,1006.60
2017-03-08T05:44:31.787Z,1006.66
2017-03-08T05:44:58.308Z,1006.60
2017-03-08T05:45:51.362Z,1006.54
2017-03-08T05:46:13.298Z,1006.56
2017-03-08T05:46:39.801Z,1006.59
2017-03-08T05:47:01.560Z,1006.61
2017-03-08T05:48:04.776Z,1006.63
2017-03-08T05:48:36.051Z,1006.56
2017-03-08T05:49:29.050Z,1006.53
2017-03-08T05:49:50.788Z,1006.61
2017-03-08T05:50:12.481Z,1006.55
2017-03-08T05:50:34.193Z,1006.57
2017-03-08T05:50:55.937Z,1006.51
2017-03-08T05:51:17.675Z,1006.57
2017-03-08T05:51:39.412Z,1006.57
2017-03-08T05:52:01.133Z,1006.53
2017-03-08T05:52:22.871Z,1006.51
2017-03-08T05:52:44.619Z,1006.56
2017-03-08T05:53:06.409Z,1006.66
2017-03-08T05:53:28.127Z,1006.64
2017-03-08T05:53:49.845Z,1006.59
2017-03-08T05:54:11.576Z,1006.54
2017-03-08T05:55:04.544Z,1006.51
2017-03-08T05:55:31.017Z,1006.56
2017-03-08T05:55:52.747Z,1006.56
2017-03-08T05:56:19.234Z,1006.53
2017-03-08T05:56:40.943Z,1006.63
2017-03-08T05:57:02.670Z,1006.71
2017-03-08T05:57:27.211Z,1006.66
2017-03-08T05:57:49.013Z,1006.60
2017-03-08T05:58:15.495Z,1006.67
2017-03-08T05:58:37.225Z,1006.68
2017-03-08T05:59:03.710Z,1006.67
2017-03-08T05:59:25.513Z,1006.64
2017-03-08T06:00:32.997Z,1006.66
2017-03-08T06:00:54.801Z,1006.68
2017-03-08T06:01:16.541Z,1006.69
2017-03-08T06:02:09.612Z,1006.64
2017-03-08T06:03:17.014Z,1006.69
2017-03-08T06:03:38.666Z,1006.72
2017-03-08T06:04:46.075Z,1006.63
2017-03-08T06:05:07.748Z,1006.68
2017-03-08T06:05:34.280Z,1006.65
2017-03-08T06:05:55.985Z,1006.81
2017-03-08T06:06:17.795Z,1006.66
2017-03-08T06:06:44.284Z,1006.74